Solviken — LAJC6 — position and weather

sailwx.info

Track history (hours):
 
Tides and Currents Weather Stations Pressure Air Temp Water Temp Dewpoint Dewpoint Depression Visibility Wind Speed Wind Dir Waves Ship Positions

Solviken

Last reported at 2017-Nov-14 10:10 UTC. Time now 2017-Nov-17 23:15 UTC.
Position N 59°35' E 023°06'.

Length 249 m; draft 14.1 m.

Type: Tanker. MMSI: 258682000.

Date/timePositionNaut miles runAvg speedWind from/ knotsBaromVisibWave heightAir tempDewpointWater temp
2017-Nov-14 10:10N 59°35' E 023°06'213.3
2017-Nov-14 10:00N 59°36' E 023°10'713.2
2017-Nov-14 09:30N 59°38' E 023°23'613.3
2017-Nov-14 09:00N 59°40' E 023°35'713.4
2017-Nov-14 08:30N 59°42' E 023°48'713.4
2017-Nov-14 08:00N 59°44' E 024°01'713.4
2017-Nov-14 07:29N 59°46' E 024°14'613.3
2017-Nov-14 07:00N 59°47' E 024°26'713.4
2017-Nov-14 06:30N 59°49' E 024°39'713.3
2017-Nov-14 06:00N 59°50' E 024°52'4113.3
2017-Nov-14 02:55N 59°59' E 026°12'513.4
2017-Nov-14 02:30N 59°60' E 026°23'713.4
2017-Nov-14 02:00N 60°01' E 026°36'713.5
2017-Nov-14 01:30N 60°00' E 026°49'713.4
2017-Nov-14 01:00N 59°60' E 027°02'713.3
2017-Nov-14 00:30N 60°03' E 027°14'713.5
2017-Nov-14 00:00N 60°07' E 027°25'713.4
2017-Nov-13 23:30N 60°10' E 027°37'612.6
2017-Nov-13 23:00N 60°12' E 027°49'713.4
2017-Nov-13 22:30N 60°10' E 028°02'713.2
2017-Nov-13 22:00N 60°08' E 028°15'27 1.3
2017-Nov-13 01:52N 59°42' E 028°26'0 0.0
2017-Nov-13 01:22N 59°42' E 028°26'0 0.0
2017-Nov-13 00:52N 59°42' E 028°26'0 0.0
2017-Nov-13 00:22N 59°42' E 028°26'0 0.0
2017-Nov-12 23:55N 59°42' E 028°26'0 0.0
2017-Nov-12 23:25N 59°42' E 028°26'0 0.0
2017-Nov-12 22:55N 59°42' E 028°26'0 0.0
2017-Nov-12 22:25N 59°42' E 028°26'0 0.0
2017-Nov-12 21:55N 59°42' E 028°26'0 0.0
2017-Nov-12 21:25N 59°42' E 028°26'0 0.0
2017-Nov-12 20:58N 59°42' E 028°26'0 0.0
2017-Nov-12 20:28N 59°42' E 028°26'0 0.0
2017-Nov-12 19:58N 59°42' E 028°26'0 0.0
2017-Nov-12 19:28N 59°42' E 028°26'0 0.0
2017-Nov-12 18:58N 59°42' E 028°26'0 0.0
2017-Nov-12 18:28N 59°42' E 028°26'0 0.0
2017-Nov-12 17:58N 59°42' E 028°26'0 0.0
2017-Nov-12 17:28N 59°42' E 028°26'0 0.0
2017-Nov-12 16:58N 59°42' E 028°26'0 0.0
2017-Nov-12 16:28N 59°42' E 028°26'0 0.0
2017-Nov-12 15:58N 59°42' E 028°26'0 0.0
2017-Nov-12 15:28N 59°42' E 028°26'0 0.0
2017-Nov-12 14:58N 59°42' E 028°26'0 0.0
2017-Nov-12 14:28N 59°42' E 028°26'1 1.7
2017-Nov-12 14:00N 59°42' E 028°25'2 4.5
2017-Nov-12 13:30N 59°44' E 028°23'510.1
2017-Nov-12 13:00N 59°49' E 028°25'612.5
2017-Nov-12 12:30N 59°54' E 028°31'3 7.0
2017-Nov-12 12:00N 59°58' E 028°31'1 1.6
2017-Nov-12 11:30N 59°58' E 028°31'1 1.3
2017-Nov-12 11:00N 59°58' E 028°32'1 1.8
2017-Nov-12 10:30N 59°58' E 028°33'2 4.2
2017-Nov-12 09:57N 59°58' E 028°38'0 0.0
2017-Nov-12 09:30N 59°58' E 028°38'0 0.0
2017-Nov-12 08:57N 59°58' E 028°38'0 0.0
2017-Nov-12 08:27N 59°58' E 028°38'0 0.1
2017-Nov-12 08:00N 59°58' E 028°38'0 0.2
2017-Nov-12 07:27N 59°58' E 028°38'0 0.1
2017-Nov-12 07:00N 59°58' E 028°38'0 0.1
2017-Nov-12 06:27N 59°58' E 028°38'0 0.0
2017-Nov-12 06:00N 59°58' E 028°38'0 0.1
2017-Nov-12 05:30N 59°58' E 028°38'0 0.1
2017-Nov-12 04:57N 59°58' E 028°38'0 0.2
2017-Nov-12 04:30N 59°57' E 028°38'0 0.1
2017-Nov-12 04:00N 59°58' E 028°38'0 0.1
2017-Nov-12 03:30N 59°57' E 028°38'0 0.1
2017-Nov-12 03:00N 59°57' E 028°38'0 0.2
2017-Nov-12 02:30N 59°58' E 028°38'0 0.2
2017-Nov-12 02:00N 59°57' E 028°38'0 0.1
2017-Nov-12 01:30N 59°57' E 028°38'0 0.1
2017-Nov-12 01:00N 59°58' E 028°38'0 0.2
2017-Nov-12 00:30N 59°57' E 028°38'0 0.1
2017-Nov-12 00:00N 59°58' E 028°38'0 0.0
2017-Nov-11 23:30N 59°58' E 028°38'0 0.1
2017-Nov-11 23:00N 59°57' E 028°38'0 0.1
2017-Nov-11 22:30N 59°58' E 028°38'0 0.0
2017-Nov-11 21:57N 59°58' E 028°38'0 0.0
2017-Nov-11 21:30N 59°58' E 028°38'0 0.0
2017-Nov-11 20:57N 59°58' E 028°38'0 0.1
2017-Nov-11 20:30N 59°58' E 028°38'0 0.0
2017-Nov-11 20:00N 59°58' E 028°38'0 0.1
2017-Nov-11 19:30N 59°58' E 028°38'0 0.0
2017-Nov-11 19:00N 59°58' E 028°38'0 0.0
2017-Nov-11 18:30N 59°58' E 028°38'0 0.0
2017-Nov-11 18:00N 59°58' E 028°38'0 0.0
2017-Nov-11 17:27N 59°58' E 028°38'0 0.1
2017-Nov-11 17:00N 59°58' E 028°38'0 0.1
2017-Nov-11 16:30N 59°58' E 028°38'0 0.0
2017-Nov-11 16:00N 59°58' E 028°38'0 0.0
2017-Nov-11 15:30N 59°58' E 028°38'0 0.2
2017-Nov-11 15:00N 59°58' E 028°38'0 0.1
2017-Nov-11 14:30N 59°57' E 028°38'0 0.0
2017-Nov-11 14:00N 59°57' E 028°38'0 0.0
2017-Nov-11 13:30N 59°58' E 028°38'0 0.0
2017-Nov-11 13:00N 59°58' E 028°38'0 0.1
2017-Nov-11 12:30N 59°57' E 028°38'0 0.0
2017-Nov-11 12:00N 59°57' E 028°38'0 0.0
2017-Nov-11 11:30N 59°57' E 028°38'0 0.0
2017-Nov-11 11:00N 59°57' E 028°38'0 0.0
2017-Nov-11 10:30N 59°57' E 028°38'0 0.0
2017-Nov-11 10:00N 59°57' E 028°38'0 0.0
2017-Nov-11 09:27N 59°57' E 028°38'0 0.0
2017-Nov-11 08:57N 59°57' E 028°38'0 0.0
2017-Nov-11 08:21N 59°57' E 028°38'0 0.8
2017-Nov-11 08:00N 59°57' E 028°37'2 4.3
2017-Nov-11 07:30N 59°59' E 028°35'3 6.7
2017-Nov-11 07:00N 60°02' E 028°32'5 9.8
2017-Nov-11 06:30N 60°04' E 028°23'510.0
2017-Nov-11 06:00N 60°07' E 028°16'611.4
2017-Nov-11 05:30N 60°09' E 028°04'612.2
2017-Nov-11 05:00N 60°10' E 027°53'5 9.6
2017-Nov-11 04:30N 60°10' E 027°43'510.9
2017-Nov-11 04:00N 60°07' E 027°34'611.2
2017-Nov-11 03:30N 60°04' E 027°24'611.1
2017-Nov-11 03:00N 60°01' E 027°15'611.1
2017-Nov-11 02:30N 59°58' E 027°05'510.2
2017-Nov-11 02:00N 59°59' E 026°55'510.6
2017-Nov-11 01:30N 59°59' E 026°45'510.7
2017-Nov-11 01:00N 59°59' E 026°34'511.0
2017-Nov-11 00:30N 59°57' E 026°23'511.0
2017-Nov-11 00:00N 59°56' E 026°13'1811.1
2017-Nov-10 22:24N 59°51' E 025°39'511.1
2017-Nov-10 21:57N 59°50' E 025°29'511.0
2017-Nov-10 21:30N 59°49' E 025°19'510.9
2017-Nov-10 21:00N 59°48' E 025°09'611.0
2017-Nov-10 20:30N 59°47' E 024°58'611.1
2017-Nov-10 20:01N 59°46' E 024°47'611.0
2017-Nov-10 19:30N 59°45' E 024°36'611.1
2017-Nov-10 19:00N 59°43' E 024°26'611.0
2017-Nov-10 18:30N 59°42' E 024°15'713.5
2017-Nov-10 18:01N 59°40' E 024°03'611.0
2017-Nov-10 17:30N 59°38' E 023°52'511.0
2017-Nov-10 17:01N 59°36' E 023°42'511.0
2017-Nov-10 16:30N 59°34' E 023°32'611.1
2017-Nov-10 16:00N 59°33' E 023°21'611.1
2017-Nov-10 15:31N 59°31' E 023°11'610.9
2017-Nov-10 14:57N 59°29' E 022°60'28211.3
2017-Nov-09 14:06N 56°06' E 016°53'111.4
2017-Nov-09 13:58N 56°05' E 016°51'611.4
2017-Nov-09 13:29N 56°02' E 016°43'611.4
2017-Nov-09 12:58N 55°59' E 016°34'511.4
2017-Nov-09 12:31N 55°56' E 016°27'611.2
2017-Nov-09 12:01N 55°53' E 016°18'611.3
2017-Nov-09 11:31N 55°50' E 016°10'611.2
2017-Nov-09 11:00N 55°47' E 016°01'510.9
2017-Nov-09 10:31N 55°44' E 015°53'510.7
2017-Nov-09 10:01N 55°41' E 015°45'510.9
2017-Nov-09 09:31N 55°38' E 015°37'611.0
2017-Nov-09 09:00N 55°35' E 015°29'510.9
2017-Nov-09 08:31N 55°32' E 015°21'610.9
2017-Nov-09 08:00N 55°29' E 015°13'612.3
2017-Nov-09 07:30N 55°26' E 015°04'713.3
2017-Nov-09 07:00N 55°22' E 014°54'610.8
2017-Nov-09 06:30N 55°19' E 014°46'510.7
2017-Nov-09 06:00N 55°16' E 014°39'611.2
2017-Nov-09 05:30N 55°12' E 014°32'611.4
2017-Nov-09 05:00N 55°08' E 014°24'611.2
2017-Nov-09 04:30N 55°05' E 014°16'611.0
2017-Nov-09 04:00N 55°01' E 014°09'611.0
2017-Nov-09 03:30N 54°59' E 013°60'611.3
2017-Nov-09 02:59N 54°57' E 013°50'611.3
2017-Nov-09 02:30N 54°56' E 013°41'611.6
2017-Nov-09 01:57N 54°53' E 013°31'511.3
2017-Nov-09 01:30N 54°52' E 013°22'510.8
2017-Nov-09 01:01N 54°50' E 013°14'611.1
2017-Nov-09 00:30N 54°48' E 013°05'711.3
2017-Nov-08 23:52N 54°46' E 012°53'411.2
2017-Nov-08 23:30N 54°44' E 012°46'611.6
2017-Nov-08 23:00N 54°41' E 012°37'612.0
2017-Nov-08 22:30N 54°38' E 012°29'612.2
2017-Nov-08 22:00N 54°35' E 012°20'611.6
2017-Nov-08 21:29N 54°29' E 012°15'611.8
2017-Nov-08 21:00N 54°25' E 012°09'611.7
2017-Nov-08 20:31N 54°25' E 011°59'611.5
2017-Nov-08 20:00N 54°25' E 011°49'611.5
2017-Nov-08 19:30N 54°27' E 011°40'611.3
2017-Nov-08 19:00N 54°29' E 011°31'511.1
2017-Nov-08 18:30N 54°32' E 011°22'510.7
2017-Nov-08 18:01N 54°34' E 011°14'510.7
2017-Nov-08 17:31N 54°36' E 011°06'510.9
2017-Nov-08 17:01N 54°40' E 010°58'510.7
2017-Nov-08 16:30N 54°43' E 010°52'611.2
2017-Nov-08 16:00N 54°49' E 010°52'511.0
2017-Nov-08 15:30N 54°54' E 010°53'611.2
2017-Nov-08 15:01N 54°59' E 010°59'510.9
2017-Nov-08 14:30N 55°04' E 011°02'611.0
2017-Nov-08 14:01N 55°09' E 011°03'510.5
2017-Nov-08 13:31N 55°15' E 011°05'610.9
2017-Nov-08 12:59N 55°20' E 011°02'5 9.5
2017-Nov-08 12:29N 55°25' E 010°59'9810.1
2017-Nov-08 02:46N 56°60' E 011°42'411.1
2017-Nov-08 02:24N 57°03' E 011°40'511.0
2017-Nov-08 02:00N 57°07' E 011°37'5 9.7
2017-Nov-08 01:29N 57°12' E 011°34'5 9.5
2017-Nov-08 01:01N 57°16' E 011°31'5 9.8
2017-Nov-08 00:30N 57°21' E 011°27'5 9.6
2017-Nov-07 23:59N 57°25' E 011°23'4 9.3
2017-Nov-07 23:31N 57°29' E 011°19'510.0
2017-Nov-07 23:00N 57°33' E 011°12'5 9.8
2017-Nov-07 22:29N 57°36' E 011°05'510.2
2017-Nov-07 22:00N 57°40' E 010°59'510.4
2017-Nov-07 21:31N 57°43' E 010°52'510.0
2017-Nov-07 21:00N 57°47' E 010°45'510.5
2017-Nov-07 20:30N 57°47' E 010°35'510.5
2017-Nov-07 20:00N 57°47' E 010°25'4 8.5
2017-Nov-07 19:30N 57°47' E 010°17'4 8.4
2017-Nov-07 19:00N 57°47' E 010°09'4 8.2
2017-Nov-07 18:29N 57°47' E 010°01'405 9.2
2017-Nov-05 22:14N 52°06' E 003°38'3 9.8
2017-Nov-05 21:59N 52°05' E 003°42'510.5
2017-Nov-05 21:30N 52°04' E 003°50'4 7.5
2017-Nov-05 21:01N 52°03' E 003°55'3 6.9
2017-Nov-05 20:30N 52°00' E 003°59'5 9.1
2017-Nov-05 20:00N 51°58' E 004°05'1 1.1
2017-Nov-05 19:30N 51°58' E 004°04'0 0.0
2017-Nov-05 18:58N 51°58' E 004°04'0 0.0
2017-Nov-05 18:28N 51°58' E 004°04'0 0.0
2017-Nov-04 19:03N 51°58' E 004°04'0 0.0
2017-Nov-04 19:00N 51°58' E 004°04'0 0.2
2017-Nov-04 18:31N 51°58' E 004°04'1 1.8
2017-Nov-04 18:01N 51°59' E 004°05'5 9.3
2017-Nov-04 17:30N 52°01' E 003°58'611.5
2017-Nov-04 17:01N 52°02' E 003°48'4 7.4
2017-Nov-04 16:30N 52°03' E 003°43'4 8.3
2017-Nov-04 15:59N 52°05' E 003°37'  
Track history (hours):
 
Tides and Currents Weather Stations Pressure Air Temp Water Temp Dewpoint Dewpoint Depression Visibility Wind Speed Wind Dir Waves Ship Positions

Solviken

Last reported at 2017-Nov-14 10:10 UTC. Time now 2017-Nov-17 23:15 UTC.
Position N 59°35' E 023°06'.

Length 249 m; draft 14.1 m.

Type: Tanker. MMSI: 258682000.

Date/timePositionNaut miles runAvg speedWind from/ knotsBaromVisibWave heightAir tempDewpointWater temp
2017-Nov-14 10:10N 59°35' E 023°06'213.3
2017-Nov-14 10:00N 59°36' E 023°10'713.2
2017-Nov-14 09:30N 59°38' E 023°23'613.3
2017-Nov-14 09:00N 59°40' E 023°35'713.4
2017-Nov-14 08:30N 59°42' E 023°48'713.4
2017-Nov-14 08:00N 59°44' E 024°01'713.4
2017-Nov-14 07:29N 59°46' E 024°14'613.3
2017-Nov-14 07:00N 59°47' E 024°26'713.4
2017-Nov-14 06:30N 59°49' E 024°39'713.3
2017-Nov-14 06:00N 59°50' E 024°52'4113.3
2017-Nov-14 02:55N 59°59' E 026°12'513.4
2017-Nov-14 02:30N 59°60' E 026°23'713.4
2017-Nov-14 02:00N 60°01' E 026°36'713.5
2017-Nov-14 01:30N 60°00' E 026°49'713.4
2017-Nov-14 01:00N 59°60' E 027°02'713.3
2017-Nov-14 00:30N 60°03' E 027°14'713.5
2017-Nov-14 00:00N 60°07' E 027°25'713.4
2017-Nov-13 23:30N 60°10' E 027°37'612.6
2017-Nov-13 23:00N 60°12' E 027°49'713.4
2017-Nov-13 22:30N 60°10' E 028°02'713.2
2017-Nov-13 22:00N 60°08' E 028°15'27 1.3
2017-Nov-13 01:52N 59°42' E 028°26'0 0.0
2017-Nov-13 01:22N 59°42' E 028°26'0 0.0
2017-Nov-13 00:52N 59°42' E 028°26'0 0.0
2017-Nov-13 00:22N 59°42' E 028°26'0 0.0
2017-Nov-12 23:55N 59°42' E 028°26'0 0.0
2017-Nov-12 23:25N 59°42' E 028°26'0 0.0
2017-Nov-12 22:55N 59°42' E 028°26'0 0.0
2017-Nov-12 22:25N 59°42' E 028°26'0 0.0
2017-Nov-12 21:55N 59°42' E 028°26'0 0.0
2017-Nov-12 21:25N 59°42' E 028°26'0 0.0
2017-Nov-12 20:58N 59°42' E 028°26'0 0.0
2017-Nov-12 20:28N 59°42' E 028°26'0 0.0
2017-Nov-12 19:58N 59°42' E 028°26'0 0.0
2017-Nov-12 19:28N 59°42' E 028°26'0 0.0
2017-Nov-12 18:58N 59°42' E 028°26'0 0.0
2017-Nov-12 18:28N 59°42' E 028°26'0 0.0
2017-Nov-12 17:58N 59°42' E 028°26'0 0.0
2017-Nov-12 17:28N 59°42' E 028°26'0 0.0
2017-Nov-12 16:58N 59°42' E 028°26'0 0.0
2017-Nov-12 16:28N 59°42' E 028°26'0 0.0
2017-Nov-12 15:58N 59°42' E 028°26'0 0.0
2017-Nov-12 15:28N 59°42' E 028°26'0 0.0
2017-Nov-12 14:58N 59°42' E 028°26'0 0.0
2017-Nov-12 14:28N 59°42' E 028°26'1 1.7
2017-Nov-12 14:00N 59°42' E 028°25'2 4.5
2017-Nov-12 13:30N 59°44' E 028°23'510.1
2017-Nov-12 13:00N 59°49' E 028°25'612.5
2017-Nov-12 12:30N 59°54' E 028°31'3 7.0
2017-Nov-12 12:00N 59°58' E 028°31'1 1.6
2017-Nov-12 11:30N 59°58' E 028°31'1 1.3
2017-Nov-12 11:00N 59°58' E 028°32'1 1.8
2017-Nov-12 10:30N 59°58' E 028°33'2 4.2
2017-Nov-12 09:57N 59°58' E 028°38'0 0.0
2017-Nov-12 09:30N 59°58' E 028°38'0 0.0
2017-Nov-12 08:57N 59°58' E 028°38'0 0.0
2017-Nov-12 08:27N 59°58' E 028°38'0 0.1
2017-Nov-12 08:00N 59°58' E 028°38'0 0.2
2017-Nov-12 07:27N 59°58' E 028°38'0 0.1
2017-Nov-12 07:00N 59°58' E 028°38'0 0.1
2017-Nov-12 06:27N 59°58' E 028°38'0 0.0
2017-Nov-12 06:00N 59°58' E 028°38'0 0.1
2017-Nov-12 05:30N 59°58' E 028°38'0 0.1
2017-Nov-12 04:57N 59°58' E 028°38'0 0.2
2017-Nov-12 04:30N 59°57' E 028°38'0 0.1
2017-Nov-12 04:00N 59°58' E 028°38'0 0.1
2017-Nov-12 03:30N 59°57' E 028°38'0 0.1
2017-Nov-12 03:00N 59°57' E 028°38'0 0.2
2017-Nov-12 02:30N 59°58' E 028°38'0 0.2
2017-Nov-12 02:00N 59°57' E 028°38'0 0.1
2017-Nov-12 01:30N 59°57' E 028°38'0 0.1
2017-Nov-12 01:00N 59°58' E 028°38'0 0.2
2017-Nov-12 00:30N 59°57' E 028°38'0 0.1
2017-Nov-12 00:00N 59°58' E 028°38'0 0.0
2017-Nov-11 23:30N 59°58' E 028°38'0 0.1
2017-Nov-11 23:00N 59°57' E 028°38'0 0.1
2017-Nov-11 22:30N 59°58' E 028°38'0 0.0
2017-Nov-11 21:57N 59°58' E 028°38'0 0.0
2017-Nov-11 21:30N 59°58' E 028°38'0 0.0
2017-Nov-11 20:57N 59°58' E 028°38'0 0.1
2017-Nov-11 20:30N 59°58' E 028°38'0 0.0
2017-Nov-11 20:00N 59°58' E 028°38'0 0.1
2017-Nov-11 19:30N 59°58' E 028°38'0 0.0
2017-Nov-11 19:00N 59°58' E 028°38'0 0.0
2017-Nov-11 18:30N 59°58' E 028°38'0 0.0
2017-Nov-11 18:00N 59°58' E 028°38'0 0.0
2017-Nov-11 17:27N 59°58' E 028°38'0 0.1
2017-Nov-11 17:00N 59°58' E 028°38'0 0.1
2017-Nov-11 16:30N 59°58' E 028°38'0 0.0
2017-Nov-11 16:00N 59°58' E 028°38'0 0.0
2017-Nov-11 15:30N 59°58' E 028°38'0 0.2
2017-Nov-11 15:00N 59°58' E 028°38'0 0.1
2017-Nov-11 14:30N 59°57' E 028°38'0 0.0
2017-Nov-11 14:00N 59°57' E 028°38'0 0.0
2017-Nov-11 13:30N 59°58' E 028°38'0 0.0
2017-Nov-11 13:00N 59°58' E 028°38'0 0.1
2017-Nov-11 12:30N 59°57' E 028°38'0 0.0
2017-Nov-11 12:00N 59°57' E 028°38'0 0.0
2017-Nov-11 11:30N 59°57' E 028°38'0 0.0
2017-Nov-11 11:00N 59°57' E 028°38'0 0.0
2017-Nov-11 10:30N 59°57' E 028°38'0 0.0
2017-Nov-11 10:00N 59°57' E 028°38'0 0.0
2017-Nov-11 09:27N 59°57' E 028°38'0 0.0
2017-Nov-11 08:57N 59°57' E 028°38'0 0.0
2017-Nov-11 08:21N 59°57' E 028°38'0 0.8
2017-Nov-11 08:00N 59°57' E 028°37'2 4.3
2017-Nov-11 07:30N 59°59' E 028°35'3 6.7
2017-Nov-11 07:00N 60°02' E 028°32'5 9.8
2017-Nov-11 06:30N 60°04' E 028°23'510.0
2017-Nov-11 06:00N 60°07' E 028°16'611.4
2017-Nov-11 05:30N 60°09' E 028°04'612.2
2017-Nov-11 05:00N 60°10' E 027°53'5 9.6
2017-Nov-11 04:30N 60°10' E 027°43'510.9
2017-Nov-11 04:00N 60°07' E 027°34'611.2
2017-Nov-11 03:30N 60°04' E 027°24'611.1
2017-Nov-11 03:00N 60°01' E 027°15'611.1
2017-Nov-11 02:30N 59°58' E 027°05'510.2
2017-Nov-11 02:00N 59°59' E 026°55'510.6
2017-Nov-11 01:30N 59°59' E 026°45'510.7
2017-Nov-11 01:00N 59°59' E 026°34'511.0
2017-Nov-11 00:30N 59°57' E 026°23'511.0
2017-Nov-11 00:00N 59°56' E 026°13'1811.1
2017-Nov-10 22:24N 59°51' E 025°39'511.1
2017-Nov-10 21:57N 59°50' E 025°29'511.0
2017-Nov-10 21:30N 59°49' E 025°19'510.9
2017-Nov-10 21:00N 59°48' E 025°09'611.0
2017-Nov-10 20:30N 59°47' E 024°58'611.1
2017-Nov-10 20:01N 59°46' E 024°47'611.0
2017-Nov-10 19:30N 59°45' E 024°36'611.1
2017-Nov-10 19:00N 59°43' E 024°26'611.0
2017-Nov-10 18:30N 59°42' E 024°15'713.5
2017-Nov-10 18:01N 59°40' E 024°03'611.0
2017-Nov-10 17:30N 59°38' E 023°52'511.0
2017-Nov-10 17:01N 59°36' E 023°42'511.0
2017-Nov-10 16:30N 59°34' E 023°32'611.1
2017-Nov-10 16:00N 59°33' E 023°21'611.1
2017-Nov-10 15:31N 59°31' E 023°11'610.9
2017-Nov-10 14:57N 59°29' E 022°60'28211.3
2017-Nov-09 14:06N 56°06' E 016°53'111.4
2017-Nov-09 13:58N 56°05' E 016°51'611.4
2017-Nov-09 13:29N 56°02' E 016°43'611.4
2017-Nov-09 12:58N 55°59' E 016°34'511.4
2017-Nov-09 12:31N 55°56' E 016°27'611.2
2017-Nov-09 12:01N 55°53' E 016°18'611.3
2017-Nov-09 11:31N 55°50' E 016°10'611.2
2017-Nov-09 11:00N 55°47' E 016°01'510.9
2017-Nov-09 10:31N 55°44' E 015°53'510.7
2017-Nov-09 10:01N 55°41' E 015°45'510.9
2017-Nov-09 09:31N 55°38' E 015°37'611.0
2017-Nov-09 09:00N 55°35' E 015°29'510.9
2017-Nov-09 08:31N 55°32' E 015°21'610.9
2017-Nov-09 08:00N 55°29' E 015°13'612.3
2017-Nov-09 07:30N 55°26' E 015°04'713.3
2017-Nov-09 07:00N 55°22' E 014°54'610.8
2017-Nov-09 06:30N 55°19' E 014°46'510.7
2017-Nov-09 06:00N 55°16' E 014°39'611.2
2017-Nov-09 05:30N 55°12' E 014°32'611.4
2017-Nov-09 05:00N 55°08' E 014°24'611.2
2017-Nov-09 04:30N 55°05' E 014°16'611.0
2017-Nov-09 04:00N 55°01' E 014°09'611.0
2017-Nov-09 03:30N 54°59' E 013°60'611.3
2017-Nov-09 02:59N 54°57' E 013°50'611.3
2017-Nov-09 02:30N 54°56' E 013°41'611.6
2017-Nov-09 01:57N 54°53' E 013°31'511.3
2017-Nov-09 01:30N 54°52' E 013°22'510.8
2017-Nov-09 01:01N 54°50' E 013°14'611.1
2017-Nov-09 00:30N 54°48' E 013°05'711.3
2017-Nov-08 23:52N 54°46' E 012°53'411.2
2017-Nov-08 23:30N 54°44' E 012°46'611.6
2017-Nov-08 23:00N 54°41' E 012°37'612.0
2017-Nov-08 22:30N 54°38' E 012°29'612.2
2017-Nov-08 22:00N 54°35' E 012°20'611.6
2017-Nov-08 21:29N 54°29' E 012°15'611.8
2017-Nov-08 21:00N 54°25' E 012°09'611.7
2017-Nov-08 20:31N 54°25' E 011°59'611.5
2017-Nov-08 20:00N 54°25' E 011°49'611.5
2017-Nov-08 19:30N 54°27' E 011°40'611.3
2017-Nov-08 19:00N 54°29' E 011°31'511.1
2017-Nov-08 18:30N 54°32' E 011°22'510.7
2017-Nov-08 18:01N 54°34' E 011°14'510.7
2017-Nov-08 17:31N 54°36' E 011°06'510.9
2017-Nov-08 17:01N 54°40' E 010°58'510.7
2017-Nov-08 16:30N 54°43' E 010°52'611.2
2017-Nov-08 16:00N 54°49' E 010°52'511.0
2017-Nov-08 15:30N 54°54' E 010°53'611.2
2017-Nov-08 15:01N 54°59' E 010°59'510.9
2017-Nov-08 14:30N 55°04' E 011°02'611.0
2017-Nov-08 14:01N 55°09' E 011°03'510.5
2017-Nov-08 13:31N 55°15' E 011°05'610.9
2017-Nov-08 12:59N 55°20' E 011°02'5 9.5
2017-Nov-08 12:29N 55°25' E 010°59'9810.1
2017-Nov-08 02:46N 56°60' E 011°42'411.1
2017-Nov-08 02:24N 57°03' E 011°40'511.0
2017-Nov-08 02:00N 57°07' E 011°37'5 9.7
2017-Nov-08 01:29N 57°12' E 011°34'5 9.5
2017-Nov-08 01:01N 57°16' E 011°31'5 9.8
2017-Nov-08 00:30N 57°21' E 011°27'5 9.6
2017-Nov-07 23:59N 57°25' E 011°23'4 9.3
2017-Nov-07 23:31N 57°29' E 011°19'510.0
2017-Nov-07 23:00N 57°33' E 011°12'5 9.8
2017-Nov-07 22:29N 57°36' E 011°05'510.2
2017-Nov-07 22:00N 57°40' E 010°59'510.4
2017-Nov-07 21:31N 57°43' E 010°52'510.0
2017-Nov-07 21:00N 57°47' E 010°45'510.5
2017-Nov-07 20:30N 57°47' E 010°35'510.5
2017-Nov-07 20:00N 57°47' E 010°25'4 8.5
2017-Nov-07 19:30N 57°47' E 010°17'4 8.4
2017-Nov-07 19:00N 57°47' E 010°09'4 8.2
2017-Nov-07 18:29N 57°47' E 010°01'405 9.2
2017-Nov-05 22:14N 52°06' E 003°38'3 9.8
2017-Nov-05 21:59N 52°05' E 003°42'510.5
2017-Nov-05 21:30N 52°04' E 003°50'4 7.5
2017-Nov-05 21:01N 52°03' E 003°55'3 6.9
2017-Nov-05 20:30N 52°00' E 003°59'5 9.1
2017-Nov-05 20:00N 51°58' E 004°05'1 1.1
2017-Nov-05 19:30N 51°58' E 004°04'0 0.0
2017-Nov-05 18:58N 51°58' E 004°04'0 0.0
2017-Nov-05 18:28N 51°58' E 004°04'0 0.0
2017-Nov-04 19:03N 51°58' E 004°04'0 0.0
2017-Nov-04 19:00N 51°58' E 004°04'0 0.2
2017-Nov-04 18:31N 51°58' E 004°04'1 1.8
2017-Nov-04 18:01N 51°59' E 004°05'5 9.3
2017-Nov-04 17:30N 52°01' E 003°58'611.5
2017-Nov-04 17:01N 52°02' E 003°48'4 7.4
2017-Nov-04 16:30N 52°03' E 003°43'4 8.3
2017-Nov-04 15:59N 52°05' E 003°37'  

Dump ship's entire track history